CEB1136 RPVI-RPLC
Flight info
| Callsign | CEB1136 |
|---|---|
| Flight time | 0h 51m |
| Altitude | 32000 |
| Route | LAMBO1N LAMBO B472 IBAGO DCT MIA DCT OLIVA OLIVA5R |
| Aircraft | A21N/M-SDE3FGHIRWY/LB1 |
Departure
| Time | 2026-05-07 08:32 |
|---|---|
| Airport | Iloilo International Airport (RPVI) |
Arrival
| Time | 2026-05-07 09:23 |
|---|---|
| Airport | Clark International Airport / Clark Air Base (RPLC) |
| Time | Latitude | Longitude | Altitude | Speed | Heading |
|---|---|---|---|---|---|
| 2026-05-07 08:16 | 10.83114 | 122.49648 | 175 ft | 0 kts | 110° |
| 2026-05-07 08:20 | 10.83117 | 122.49640 | 175 ft | 2 kts | 108° |
| 2026-05-07 08:20 | 10.83122 | 122.49625 | 175 ft | 2 kts | 111° |
| 2026-05-07 08:21 | 10.83128 | 122.49612 | 175 ft | 2 kts | 117° |
| 2026-05-07 08:21 | 10.83137 | 122.49599 | 175 ft | 2 kts | 136° |
| 2026-05-07 08:21 | 10.83149 | 122.49590 | 175 ft | 2 kts | 153° |
| 2026-05-07 08:21 | 10.83163 | 122.49584 | 175 ft | 2 kts | 168° |
| 2026-05-07 08:22 | 10.83178 | 122.49583 | 175 ft | 2 kts | 185° |
| 2026-05-07 08:22 | 10.83191 | 122.49586 | 175 ft | 0 kts | 198° |
| 2026-05-07 08:22 | 10.83197 | 122.49588 | 175 ft | 0 kts | 201° |
| 2026-05-07 08:24 | 10.83189 | 122.49585 | 175 ft | 3 kts | 200° |
| 2026-05-07 08:25 | 10.83146 | 122.49570 | 175 ft | 9 kts | 199° |
| 2026-05-07 08:25 | 10.83075 | 122.49545 | 175 ft | 9 kts | 199° |
| 2026-05-07 08:25 | 10.83029 | 122.49489 | 175 ft | 12 kts | 268° |
| 2026-05-07 08:25 | 10.83058 | 122.49395 | 175 ft | 11 kts | 290° |
| 2026-05-07 08:26 | 10.83068 | 122.49369 | 175 ft | 0 kts | 290° |
| 2026-05-07 08:28 | 10.83079 | 122.49339 | 175 ft | 9 kts | 290° |
| 2026-05-07 08:28 | 10.83067 | 122.49253 | 175 ft | 17 kts | 214° |
| 2026-05-07 08:28 | 10.82934 | 122.49200 | 176 ft | 23 kts | 200° |
| 2026-05-07 08:29 | 10.82766 | 122.49138 | 175 ft | 24 kts | 200° |
| 2026-05-07 08:29 | 10.82631 | 122.49088 | 175 ft | 19 kts | 200° |
| 2026-05-07 08:29 | 10.82527 | 122.49049 | 176 ft | 13 kts | 200° |
| 2026-05-07 08:29 | 10.82436 | 122.49016 | 176 ft | 13 kts | 199° |
| 2026-05-07 08:30 | 10.82358 | 122.48988 | 176 ft | 11 kts | 197° |
| 2026-05-07 08:30 | 10.82279 | 122.48988 | 175 ft | 10 kts | 186° |
| 2026-05-07 08:30 | 10.82277 | 122.48960 | 175 ft | 7 kts | 359° |
| 2026-05-07 08:30 | 10.82308 | 122.48968 | 176 ft | 0 kts | 19° |
| 2026-05-07 08:31 | 10.82309 | 122.48969 | 176 ft | 0 kts | 19° |
| 2026-05-07 08:31 | 10.82389 | 122.48998 | 176 ft | 44 kts | 20° |
| 2026-05-07 08:31 | 10.82947 | 122.49204 | 176 ft | 122 kts | 19° |
| 2026-05-07 08:31 | 10.83957 | 122.49578 | 296 ft | 171 kts | 20° |
| 2026-05-07 08:32 | 10.85072 | 122.49986 | 942 ft | 174 kts | 21° |
| 2026-05-07 08:32 | 10.86211 | 122.50410 | 1754 ft | 174 kts | 23° |
| 2026-05-07 08:32 | 10.87329 | 122.50828 | 2316 ft | 174 kts | 23° |
| 2026-05-07 08:32 | 10.88510 | 122.51273 | 2583 ft | 187 kts | 23° |
| 2026-05-07 08:33 | 10.89786 | 122.51753 | 2855 ft | 201 kts | 23° |
| 2026-05-07 08:33 | 10.91147 | 122.52259 | 3128 ft | 215 kts | 23° |
| 2026-05-07 08:33 | 10.92676 | 122.52702 | 3276 ft | 241 kts | 6° |
| 2026-05-07 08:33 | 10.94357 | 122.52280 | 3574 ft | 266 kts | 332° |
| 2026-05-07 08:34 | 10.95851 | 122.51091 | 4087 ft | 277 kts | 324° |
| 2026-05-07 08:34 | 10.97372 | 122.49858 | 4733 ft | 280 kts | 325° |
| 2026-05-07 08:34 | 10.98926 | 122.48637 | 5398 ft | 283 kts | 326° |
| 2026-05-07 08:34 | 11.00495 | 122.47411 | 6063 ft | 286 kts | 326° |
| 2026-05-07 08:35 | 11.02062 | 122.46188 | 6699 ft | 289 kts | 326° |
| 2026-05-07 08:35 | 11.03673 | 122.44931 | 7330 ft | 292 kts | 326° |
| 2026-05-07 08:35 | 11.05291 | 122.43668 | 7931 ft | 295 kts | 326° |
| 2026-05-07 08:35 | 11.06917 | 122.42398 | 8498 ft | 299 kts | 326° |
| 2026-05-07 08:36 | 11.08578 | 122.41099 | 9058 ft | 302 kts | 326° |
| 2026-05-07 08:36 | 11.10272 | 122.39775 | 9619 ft | 305 kts | 326° |
| 2026-05-07 08:36 | 11.11923 | 122.38487 | 10172 ft | 307 kts | 325° |
| 2026-05-07 08:36 | 11.13643 | 122.37143 | 10521 ft | 317 kts | 325° |
| 2026-05-07 08:37 | 11.15464 | 122.35799 | 10762 ft | 330 kts | 329° |
| 2026-05-07 08:37 | 11.17481 | 122.34618 | 11129 ft | 336 kts | 336° |
| 2026-05-07 08:37 | 11.19622 | 122.33629 | 11649 ft | 337 kts | 339° |
| 2026-05-07 08:37 | 11.21793 | 122.32690 | 12171 ft | 338 kts | 340° |
| 2026-05-07 08:38 | 11.23992 | 122.31749 | 12682 ft | 340 kts | 340° |
| 2026-05-07 08:38 | 11.26164 | 122.30817 | 13165 ft | 343 kts | 339° |
| 2026-05-07 08:38 | 11.28408 | 122.29850 | 13649 ft | 345 kts | 339° |
| 2026-05-07 08:38 | 11.30629 | 122.28892 | 14114 ft | 348 kts | 339° |
| 2026-05-07 08:39 | 11.32860 | 122.27926 | 14559 ft | 350 kts | 339° |
| 2026-05-07 08:39 | 11.35120 | 122.26946 | 15011 ft | 352 kts | 339° |
| 2026-05-07 08:39 | 11.37371 | 122.25970 | 15445 ft | 354 kts | 339° |
| 2026-05-07 08:39 | 11.39677 | 122.24972 | 15876 ft | 357 kts | 340° |
| 2026-05-07 08:40 | 11.41972 | 122.23977 | 16284 ft | 359 kts | 340° |
| 2026-05-07 08:40 | 11.44295 | 122.22970 | 16694 ft | 361 kts | 340° |
| 2026-05-07 08:40 | 11.46604 | 122.21969 | 17094 ft | 364 kts | 340° |
| 2026-05-07 08:40 | 11.48963 | 122.20946 | 17500 ft | 365 kts | 340° |
| 2026-05-07 08:41 | 11.51317 | 122.19926 | 17885 ft | 367 kts | 340° |
| 2026-05-07 08:41 | 11.53697 | 122.18893 | 18262 ft | 370 kts | 339° |
| 2026-05-07 08:41 | 11.56046 | 122.17875 | 18621 ft | 372 kts | 339° |
| 2026-05-07 08:41 | 11.58443 | 122.16833 | 18975 ft | 374 kts | 339° |
| 2026-05-07 08:42 | 11.60871 | 122.15780 | 19334 ft | 376 kts | 339° |
| 2026-05-07 08:42 | 11.61647 | 122.15443 | 19444 ft | 376 kts | 339° |
| 2026-05-07 08:42 | 11.68054 | 122.12659 | 20339 ft | 382 kts | 339° |
| 2026-05-07 08:43 | 11.70522 | 122.11587 | 20668 ft | 384 kts | 339° |
| 2026-05-07 08:43 | 11.72979 | 122.10518 | 20976 ft | 386 kts | 339° |
| 2026-05-07 08:43 | 11.75454 | 122.09444 | 21276 ft | 388 kts | 339° |
| 2026-05-07 08:43 | 11.77960 | 122.08354 | 21568 ft | 391 kts | 339° |
| 2026-05-07 08:44 | 11.80476 | 122.07259 | 21853 ft | 393 kts | 339° |
| 2026-05-07 08:44 | 11.83027 | 122.06149 | 22138 ft | 395 kts | 339° |
| 2026-05-07 08:44 | 11.85551 | 122.05051 | 22436 ft | 397 kts | 339° |
| 2026-05-07 08:44 | 11.88124 | 122.03932 | 22743 ft | 399 kts | 339° |
| 2026-05-07 08:45 | 11.90685 | 122.02818 | 23050 ft | 400 kts | 338° |
| 2026-05-07 08:45 | 11.93258 | 122.01698 | 23356 ft | 402 kts | 338° |
| 2026-05-07 08:45 | 11.95836 | 122.00576 | 23664 ft | 403 kts | 338° |
| 2026-05-07 08:45 | 11.98417 | 121.99451 | 23974 ft | 404 kts | 338° |
| 2026-05-07 08:46 | 12.01046 | 121.98305 | 24288 ft | 405 kts | 338° |
| 2026-05-07 08:46 | 12.03635 | 121.97177 | 24575 ft | 407 kts | 338° |
| 2026-05-07 08:46 | 12.06257 | 121.96034 | 24855 ft | 408 kts | 338° |
| 2026-05-07 08:46 | 12.08891 | 121.94885 | 25136 ft | 410 kts | 338° |
| 2026-05-07 08:47 | 12.11516 | 121.93740 | 25410 ft | 412 kts | 337° |
| 2026-05-07 08:47 | 12.14179 | 121.92577 | 25687 ft | 413 kts | 337° |
| 2026-05-07 08:47 | 12.16831 | 121.91421 | 25958 ft | 414 kts | 337° |
| 2026-05-07 08:47 | 12.19467 | 121.90269 | 26224 ft | 416 kts | 337° |
| 2026-05-07 08:48 | 12.22143 | 121.89101 | 26487 ft | 417 kts | 337° |
| 2026-05-07 08:48 | 12.24845 | 121.87920 | 26759 ft | 419 kts | 337° |
| 2026-05-07 08:48 | 12.27539 | 121.86742 | 27039 ft | 419 kts | 337° |
| 2026-05-07 08:48 | 12.30247 | 121.85559 | 27306 ft | 421 kts | 336° |
| 2026-05-07 08:49 | 12.32922 | 121.84390 | 27563 ft | 422 kts | 336° |
| 2026-05-07 08:49 | 12.35657 | 121.83193 | 27803 ft | 424 kts | 336° |
| 2026-05-07 08:49 | 12.38380 | 121.82004 | 28031 ft | 426 kts | 336° |
| 2026-05-07 08:49 | 12.41099 | 121.80819 | 28259 ft | 428 kts | 336° |
| 2026-05-07 08:50 | 12.43839 | 121.79623 | 28479 ft | 430 kts | 336° |
| 2026-05-07 08:50 | 12.46598 | 121.78418 | 28705 ft | 432 kts | 336° |
| 2026-05-07 08:50 | 12.49380 | 121.77200 | 28950 ft | 433 kts | 336° |
| 2026-05-07 08:50 | 12.52170 | 121.75979 | 29187 ft | 434 kts | 336° |
| 2026-05-07 08:51 | 12.54946 | 121.74763 | 29408 ft | 436 kts | 336° |
| 2026-05-07 08:51 | 12.57757 | 121.73531 | 29627 ft | 438 kts | 336° |
| 2026-05-07 08:51 | 12.60562 | 121.72302 | 29836 ft | 440 kts | 336° |
| 2026-05-07 08:51 | 12.63378 | 121.71067 | 30045 ft | 442 kts | 336° |
| 2026-05-07 08:52 | 12.66251 | 121.69808 | 30258 ft | 443 kts | 336° |
| 2026-05-07 08:52 | 12.69082 | 121.68567 | 30460 ft | 445 kts | 335° |
| 2026-05-07 08:52 | 12.71931 | 121.67317 | 30654 ft | 447 kts | 335° |
| 2026-05-07 08:52 | 12.74817 | 121.66052 | 30873 ft | 448 kts | 335° |
| 2026-05-07 08:53 | 12.77704 | 121.64784 | 31117 ft | 449 kts | 335° |
| 2026-05-07 08:53 | 12.80591 | 121.63515 | 31364 ft | 449 kts | 335° |
| 2026-05-07 08:53 | 12.83450 | 121.62260 | 31586 ft | 450 kts | 335° |
| 2026-05-07 08:53 | 12.86354 | 121.60985 | 31773 ft | 452 kts | 335° |
| 2026-05-07 08:54 | 12.92177 | 121.58424 | 31802 ft | 452 kts | 335° |
| 2026-05-07 08:54 | 12.97965 | 121.55878 | 31809 ft | 452 kts | 335° |
| 2026-05-07 08:55 | 13.03745 | 121.53336 | 31809 ft | 452 kts | 335° |
| 2026-05-07 08:55 | 13.09546 | 121.50783 | 31812 ft | 451 kts | 335° |
| 2026-05-07 08:56 | 13.15344 | 121.48229 | 31808 ft | 451 kts | 335° |
| 2026-05-07 08:56 | 13.21145 | 121.45671 | 31810 ft | 451 kts | 335° |
| 2026-05-07 08:57 | 13.26943 | 121.43115 | 31804 ft | 451 kts | 335° |
| 2026-05-07 08:57 | 13.32718 | 121.40565 | 31803 ft | 450 kts | 335° |
| 2026-05-07 08:58 | 13.38563 | 121.37984 | 31801 ft | 450 kts | 335° |
| 2026-05-07 08:58 | 13.44365 | 121.35419 | 31796 ft | 450 kts | 335° |
| 2026-05-07 08:59 | 13.50157 | 121.32858 | 31797 ft | 450 kts | 335° |
| 2026-05-07 08:59 | 13.55990 | 121.30535 | 31610 ft | 451 kts | 341° |
| 2026-05-07 09:00 | 13.58978 | 121.29607 | 31370 ft | 448 kts | 342° |
| 2026-05-07 09:00 | 13.61992 | 121.28711 | 31031 ft | 445 kts | 343° |
| 2026-05-07 09:00 | 13.64956 | 121.27837 | 30593 ft | 441 kts | 343° |
| 2026-05-07 09:00 | 13.67920 | 121.26960 | 30087 ft | 438 kts | 343° |
| 2026-05-07 09:01 | 13.70821 | 121.26100 | 29566 ft | 435 kts | 343° |
| 2026-05-07 09:01 | 13.73724 | 121.25237 | 29191 ft | 428 kts | 343° |
| 2026-05-07 09:01 | 13.76567 | 121.24391 | 28808 ft | 423 kts | 344° |
| 2026-05-07 09:01 | 13.79406 | 121.23547 | 28392 ft | 418 kts | 344° |
| 2026-05-07 09:02 | 13.82229 | 121.22707 | 27951 ft | 414 kts | 344° |
| 2026-05-07 09:02 | 13.84954 | 121.21896 | 27498 ft | 411 kts | 344° |
| 2026-05-07 09:02 | 13.87694 | 121.21080 | 27036 ft | 408 kts | 344° |
| 2026-05-07 09:02 | 13.90422 | 121.20267 | 26572 ft | 405 kts | 344° |
| 2026-05-07 09:03 | 13.93125 | 121.19462 | 26101 ft | 402 kts | 344° |
| 2026-05-07 09:03 | 13.95819 | 121.18658 | 25636 ft | 400 kts | 344° |
| 2026-05-07 09:03 | 13.98512 | 121.17853 | 25160 ft | 398 kts | 344° |
| 2026-05-07 09:03 | 14.01167 | 121.17060 | 24696 ft | 396 kts | 344° |
| 2026-05-07 09:04 | 14.03818 | 121.16268 | 24223 ft | 394 kts | 344° |
| 2026-05-07 09:04 | 14.06429 | 121.15489 | 23747 ft | 392 kts | 344° |
| 2026-05-07 09:04 | 14.09055 | 121.14704 | 23263 ft | 391 kts | 345° |
| 2026-05-07 09:04 | 14.11654 | 121.13927 | 22786 ft | 389 kts | 345° |
| 2026-05-07 09:05 | 14.14298 | 121.13137 | 22293 ft | 388 kts | 345° |
| 2026-05-07 09:05 | 14.16915 | 121.12354 | 21814 ft | 387 kts | 345° |
| 2026-05-07 09:05 | 14.19484 | 121.11587 | 21350 ft | 385 kts | 345° |
| 2026-05-07 09:05 | 14.22065 | 121.10815 | 20895 ft | 383 kts | 345° |
| 2026-05-07 09:06 | 14.24613 | 121.10053 | 20448 ft | 382 kts | 345° |
| 2026-05-07 09:06 | 14.27181 | 121.09284 | 19989 ft | 380 kts | 345° |
| 2026-05-07 09:06 | 14.29706 | 121.08527 | 19542 ft | 375 kts | 345° |
| 2026-05-07 09:06 | 14.32181 | 121.07787 | 19100 ft | 368 kts | 345° |
| 2026-05-07 09:07 | 14.34637 | 121.07050 | 18667 ft | 363 kts | 345° |
| 2026-05-07 09:07 | 14.37082 | 121.06316 | 18225 ft | 358 kts | 345° |
| 2026-05-07 09:07 | 14.39463 | 121.05602 | 17794 ft | 356 kts | 345° |
| 2026-05-07 09:07 | 14.41876 | 121.04878 | 17351 ft | 355 kts | 345° |
| 2026-05-07 09:08 | 14.44252 | 121.04166 | 16919 ft | 354 kts | 345° |
| 2026-05-07 09:08 | 14.46621 | 121.03456 | 16484 ft | 352 kts | 345° |
| 2026-05-07 09:08 | 14.48951 | 121.02734 | 16052 ft | 347 kts | 342° |
| 2026-05-07 09:08 | 14.51208 | 121.01771 | 15612 ft | 342 kts | 335° |
| 2026-05-07 09:09 | 14.53275 | 121.00568 | 15185 ft | 338 kts | 329° |
| 2026-05-07 09:09 | 14.55242 | 120.99254 | 14766 ft | 334 kts | 328° |
| 2026-05-07 09:09 | 14.57171 | 120.97935 | 14354 ft | 334 kts | 328° |
| 2026-05-07 09:09 | 14.59119 | 120.96605 | 13934 ft | 334 kts | 328° |
| 2026-05-07 09:10 | 14.61063 | 120.95281 | 13521 ft | 335 kts | 328° |
| 2026-05-07 09:10 | 14.63017 | 120.93953 | 13097 ft | 335 kts | 328° |
| 2026-05-07 09:10 | 14.64968 | 120.92628 | 12677 ft | 335 kts | 328° |
| 2026-05-07 09:10 | 14.66934 | 120.91296 | 12263 ft | 335 kts | 328° |
| 2026-05-07 09:11 | 14.68893 | 120.89967 | 11856 ft | 335 kts | 328° |
| 2026-05-07 09:11 | 14.70811 | 120.88663 | 11439 ft | 335 kts | 328° |
| 2026-05-07 09:11 | 14.72796 | 120.87317 | 10997 ft | 334 kts | 328° |
| 2026-05-07 09:11 | 14.74725 | 120.86007 | 10594 ft | 333 kts | 328° |
| 2026-05-07 09:12 | 14.76667 | 120.84689 | 10248 ft | 329 kts | 328° |
| 2026-05-07 09:12 | 14.78559 | 120.83404 | 10078 ft | 319 kts | 328° |
| 2026-05-07 09:12 | 14.80387 | 120.82161 | 9974 ft | 306 kts | 329° |
| 2026-05-07 09:12 | 14.82158 | 120.80956 | 9671 ft | 303 kts | 329° |
| 2026-05-07 09:13 | 14.83899 | 120.79773 | 9296 ft | 302 kts | 329° |
| 2026-05-07 09:13 | 14.85673 | 120.78567 | 8911 ft | 300 kts | 329° |
| 2026-05-07 09:13 | 14.87394 | 120.77399 | 8560 ft | 298 kts | 329° |
| 2026-05-07 09:13 | 14.89122 | 120.76225 | 8294 ft | 292 kts | 329° |
| 2026-05-07 09:14 | 14.90827 | 120.75066 | 8001 ft | 289 kts | 329° |
| 2026-05-07 09:14 | 14.92498 | 120.73930 | 7631 ft | 287 kts | 329° |
| 2026-05-07 09:14 | 14.94122 | 120.72743 | 7172 ft | 286 kts | 318° |
| 2026-05-07 09:14 | 14.95191 | 120.71021 | 6623 ft | 289 kts | 288° |
| 2026-05-07 09:15 | 14.95539 | 120.69008 | 6206 ft | 286 kts | 278° |
| 2026-05-07 09:15 | 14.95792 | 120.66993 | 5905 ft | 276 kts | 279° |
| 2026-05-07 09:15 | 14.96050 | 120.65060 | 5586 ft | 269 kts | 279° |
| 2026-05-07 09:15 | 14.96319 | 120.63165 | 5365 ft | 264 kts | 280° |
| 2026-05-07 09:16 | 14.96590 | 120.61323 | 5283 ft | 251 kts | 281° |
| 2026-05-07 09:16 | 14.96934 | 120.59583 | 5228 ft | 241 kts | 287° |
| 2026-05-07 09:16 | 14.97439 | 120.57994 | 5115 ft | 228 kts | 293° |
| 2026-05-07 09:16 | 14.98007 | 120.56469 | 4779 ft | 225 kts | 294° |
| 2026-05-07 09:17 | 14.98574 | 120.54978 | 4472 ft | 220 kts | 294° |
| 2026-05-07 09:17 | 14.99122 | 120.53534 | 4185 ft | 214 kts | 293° |
| 2026-05-07 09:17 | 14.99660 | 120.52102 | 3916 ft | 207 kts | 293° |
| 2026-05-07 09:17 | 15.00234 | 120.50804 | 3807 ft | 188 kts | 309° |
| 2026-05-07 09:18 | 15.01181 | 120.50030 | 3691 ft | 165 kts | 341° |
| 2026-05-07 09:18 | 15.02293 | 120.49859 | 3697 ft | 159 kts | 7° |
| 2026-05-07 09:18 | 15.03341 | 120.50153 | 3590 ft | 153 kts | 22° |
| 2026-05-07 09:18 | 15.04322 | 120.50555 | 3481 ft | 152 kts | 24° |
| 2026-05-07 09:19 | 15.05314 | 120.50969 | 3368 ft | 152 kts | 24° |
| 2026-05-07 09:19 | 15.06298 | 120.51373 | 3241 ft | 152 kts | 23° |
| 2026-05-07 09:19 | 15.07291 | 120.51775 | 2983 ft | 152 kts | 22° |
| 2026-05-07 09:19 | 15.08270 | 120.52168 | 2713 ft | 151 kts | 22° |
| 2026-05-07 09:20 | 15.09250 | 120.52559 | 2468 ft | 150 kts | 22° |
| 2026-05-07 09:20 | 15.10238 | 120.52951 | 2228 ft | 150 kts | 22° |
| 2026-05-07 09:20 | 15.11211 | 120.53336 | 1997 ft | 149 kts | 22° |
| 2026-05-07 09:20 | 15.12177 | 120.53720 | 1762 ft | 148 kts | 21° |
| 2026-05-07 09:21 | 15.13158 | 120.54108 | 1527 ft | 148 kts | 21° |
| 2026-05-07 09:21 | 15.14124 | 120.54491 | 1298 ft | 148 kts | 21° |
| 2026-05-07 09:21 | 15.15088 | 120.54874 | 1069 ft | 147 kts | 21° |
| 2026-05-07 09:21 | 15.16049 | 120.55254 | 841 ft | 147 kts | 21° |
| 2026-05-07 09:22 | 15.17018 | 120.55622 | 613 ft | 146 kts | 20° |
| 2026-05-07 09:22 | 15.17957 | 120.55992 | 478 ft | 137 kts | 21° |
| 2026-05-07 09:22 | 15.18724 | 120.56294 | 470 ft | 95 kts | 22° |
| 2026-05-07 09:22 | 15.19214 | 120.56487 | 470 ft | 59 kts | 21° |
| 2026-05-07 09:23 | 15.19422 | 120.56571 | 470 ft | 19 kts | 21° |
| 2026-05-07 09:23 | 15.19533 | 120.56615 | 470 ft | 13 kts | 20° |
| 2026-05-07 09:23 | 15.19610 | 120.56606 | 471 ft | 10 kts | 317° |
| 2026-05-07 09:23 | 15.19647 | 120.56537 | 471 ft | 10 kts | 291° |
| 2026-05-07 09:24 | 15.19677 | 120.56456 | 471 ft | 13 kts | 291° |
| 2026-05-07 09:24 | 15.19676 | 120.56374 | 471 ft | 13 kts | 217° |
| 2026-05-07 09:24 | 15.19612 | 120.56346 | 471 ft | 9 kts | 200° |
| 2026-05-07 09:24 | 15.19540 | 120.56319 | 471 ft | 12 kts | 201° |
| 2026-05-07 09:25 | 15.19457 | 120.56286 | 471 ft | 11 kts | 201° |
| 2026-05-07 09:25 | 15.19424 | 120.56241 | 471 ft | 9 kts | 277° |
| 2026-05-07 09:25 | 15.19443 | 120.56184 | 471 ft | 7 kts | 292° |
| 2026-05-07 09:25 | 15.19463 | 120.56134 | 471 ft | 7 kts | 292° |
| 2026-05-07 09:26 | 15.19482 | 120.56088 | 471 ft | 5 kts | 302° |
| 2026-05-07 09:26 | 15.19515 | 120.56078 | 471 ft | 6 kts | 12° |
| 2026-05-07 09:26 | 15.19560 | 120.56096 | 471 ft | 4 kts | 22° |
| 2026-05-07 09:26 | 15.19577 | 120.56103 | 471 ft | 1 kts | 21° |
| 2026-05-07 09:27 | 15.19579 | 120.56104 | 471 ft | 0 kts | 21° |